createdAt,value
2018-03-16T00:01:30.631Z,3.73
2018-03-16T00:07:21.491Z,2.92
2018-03-16T00:13:12.350Z,3.11
2018-03-16T00:19:03.174Z,3.12
2018-03-16T00:24:54.030Z,3.39
2018-03-16T00:30:44.891Z,3.4
2018-03-16T00:36:35.746Z,3.03
2018-03-16T00:42:26.609Z,2.39
2018-03-16T00:48:17.480Z,2.91
2018-03-16T00:54:08.292Z,2.45
2018-03-16T00:59:59.185Z,2.36
2018-03-16T01:05:50.058Z,2.09
2018-03-16T01:11:40.907Z,2.27
2018-03-16T01:17:31.784Z,2.01
2018-03-16T01:23:22.572Z,2.21
2018-03-16T01:29:13.432Z,2.18
2018-03-16T01:35:04.303Z,2
2018-03-16T01:40:55.107Z,2.13
2018-03-16T01:46:46.000Z,2.14
2018-03-16T01:52:36.840Z,2.54
2018-03-16T01:58:27.733Z,1.98
2018-03-16T02:04:18.558Z,1.92
2018-03-16T02:10:09.405Z,1.93
2018-03-16T02:16:00.352Z,2.16
2018-03-16T02:21:51.247Z,1.97
2018-03-16T02:27:41.956Z,2.32
2018-03-16T02:33:32.800Z,2.16
2018-03-16T02:39:23.670Z,2.06
2018-03-16T02:45:14.520Z,1.84
2018-03-16T02:51:05.396Z,2.04
2018-03-16T02:56:56.250Z,1.96
2018-03-16T03:02:47.107Z,2.1
2018-03-16T03:08:37.936Z,1.84
2018-03-16T03:14:28.777Z,1.86
2018-03-16T03:20:19.618Z,1.36
2018-03-16T03:26:10.518Z,1.33
2018-03-16T03:32:01.340Z,1.62
2018-03-16T03:37:52.194Z,1.34
2018-03-16T03:43:43.032Z,1.55
2018-03-16T03:49:33.885Z,1.79
2018-03-16T03:55:24.730Z,1.34
2018-03-16T04:01:15.581Z,1.62
2018-03-16T04:07:06.431Z,1.32
2018-03-16T04:12:57.283Z,1.18
2018-03-16T04:18:48.102Z,1.52
2018-03-16T04:24:38.997Z,1.56
2018-03-16T04:30:29.816Z,1.39
2018-03-16T04:36:20.686Z,1.65
2018-03-16T04:42:11.531Z,1.4
2018-03-16T04:48:02.398Z,1.15
2018-03-16T04:53:53.266Z,1.33
2018-03-16T04:59:44.131Z,1.68
2018-03-16T05:05:34.994Z,1.64
2018-03-16T05:11:25.785Z,1.51
2018-03-16T05:17:16.657Z,1.75
2018-03-16T05:23:07.510Z,1.6
2018-03-16T05:28:58.373Z,1.6
2018-03-16T05:34:49.264Z,1.74
2018-03-16T05:40:40.086Z,1.51
2018-03-16T05:46:30.934Z,1.58
2018-03-16T05:52:21.737Z,6.77
2018-03-16T05:58:12.607Z,2.84
2018-03-16T06:04:03.457Z,1.85
2018-03-16T06:09:54.269Z,2.24
2018-03-16T06:15:45.160Z,2.17
2018-03-16T06:21:35.978Z,2.27
2018-03-16T06:27:26.842Z,2.26
2018-03-16T06:33:17.736Z,2.52
2018-03-16T06:39:08.597Z,2.3
2018-03-16T06:44:59.595Z,2.33
2018-03-16T06:50:50.317Z,2.21
2018-03-16T06:56:41.121Z,2.42
2018-03-16T07:02:31.934Z,2.46
2018-03-16T07:08:22.782Z,2.71
2018-03-16T07:14:13.665Z,2.1
2018-03-16T07:20:04.535Z,2.81
2018-03-16T07:25:55.383Z,3.82
2018-03-16T07:31:46.223Z,2.73
2018-03-16T07:37:37.077Z,3.06
2018-03-16T07:43:27.929Z,3.82
2018-03-16T07:49:18.765Z,4.38
2018-03-16T07:55:09.642Z,4.36
2018-03-16T08:01:00.487Z,4.23
2018-03-16T08:06:51.351Z,3.45
2018-03-16T08:12:42.178Z,4.4
2018-03-16T08:18:33.058Z,4.66
2018-03-16T08:24:23.913Z,3.82
2018-03-16T08:30:14.708Z,6.16
2018-03-16T08:36:05.615Z,5.62
2018-03-16T08:41:56.458Z,3.64
2018-03-16T08:47:47.255Z,3.53
2018-03-16T08:53:38.151Z,2.85
2018-03-16T08:59:28.993Z,3.2
2018-03-16T09:05:19.892Z,2.7
2018-03-16T09:11:10.716Z,2.88
2018-03-16T09:17:01.572Z,2.58
2018-03-16T09:22:52.435Z,2.84
2018-03-16T09:28:43.275Z,2.99
2018-03-16T09:34:34.154Z,3.19
2018-03-16T09:40:24.984Z,2.78
2018-03-16T09:46:15.826Z,2.84
2018-03-16T09:52:06.664Z,2.69
2018-03-16T09:57:57.516Z,2.66
2018-03-16T10:03:48.445Z,2.49
2018-03-16T10:09:39.215Z,2.83
2018-03-16T10:15:30.089Z,2.91
2018-03-16T10:21:20.918Z,2.76
2018-03-16T10:27:11.794Z,2.86
2018-03-16T10:33:02.674Z,3.75
2018-03-16T10:38:53.513Z,3.36
2018-03-16T10:44:44.356Z,5
2018-03-16T10:50:35.250Z,3.56
2018-03-16T10:56:26.105Z,4.78
2018-03-16T11:02:16.963Z,3.7
2018-03-16T11:08:07.827Z,5.34
2018-03-16T11:13:58.702Z,6.95
2018-03-16T11:19:49.582Z,6.81
2018-03-16T11:25:40.419Z,6.86
2018-03-16T11:31:31.326Z,6.46
2018-03-16T11:37:22.227Z,8.09
2018-03-16T11:43:13.245Z,8.8
2018-03-16T11:49:04.144Z,8.77
2018-03-16T11:54:54.985Z,8.06
2018-03-16T12:00:45.893Z,7.59
2018-03-16T12:06:36.811Z,7.31
2018-03-16T12:12:27.653Z,7.08
2018-03-16T12:18:18.572Z,7.05
2018-03-16T12:24:09.435Z,6.62
2018-03-16T12:30:00.313Z,6.87
2018-03-16T12:35:51.201Z,5.88
2018-03-16T12:41:42.088Z,5.52
2018-03-16T12:47:32.986Z,5.15
2018-03-16T12:53:23.907Z,5.48
2018-03-16T12:59:14.748Z,5.31
2018-03-16T13:05:05.586Z,4.21
2018-03-16T13:10:56.458Z,4.08
2018-03-16T13:16:47.304Z,4.54
2018-03-16T13:22:38.189Z,5.56
2018-03-16T13:28:29.034Z,4.46
2018-03-16T13:34:19.922Z,5.56
2018-03-16T13:40:10.848Z,5.24
2018-03-16T13:46:01.657Z,5.54
2018-03-16T13:51:52.540Z,5.88
2018-03-16T13:57:43.410Z,5.76
2018-03-16T14:03:34.279Z,8.37
2018-03-16T14:09:25.142Z,7.78
2018-03-16T14:15:15.995Z,8.64
2018-03-16T14:21:06.909Z,9.13
2018-03-16T14:26:57.796Z,9.13
2018-03-16T14:32:48.645Z,11.88
2018-03-16T14:38:39.564Z,10.74
2018-03-16T14:44:30.406Z,10.82
2018-03-16T14:50:21.308Z,11.26
2018-03-16T14:56:12.169Z,11.34
2018-03-16T15:02:03.037Z,11.46
2018-03-16T15:07:53.938Z,11.21
2018-03-16T15:13:46.826Z,11.19
2018-03-16T15:19:35.674Z,11.78
2018-03-16T15:25:26.528Z,12.59
2018-03-16T15:31:17.442Z,12.03
2018-03-16T15:37:08.267Z,14.51
2018-03-16T15:42:59.146Z,15.03
2018-03-16T15:48:50.000Z,13.24
2018-03-16T15:54:40.854Z,11.89
2018-03-16T16:00:31.724Z,12.48
2018-03-16T16:06:22.646Z,15.22
2018-03-16T16:12:13.474Z,13.7
2018-03-16T16:18:04.320Z,13.74
2018-03-16T16:23:55.232Z,11.61
2018-03-16T16:29:46.094Z,11.63
2018-03-16T16:35:36.965Z,11.51
2018-03-16T16:41:27.805Z,9.32
2018-03-16T16:47:18.666Z,9.35
2018-03-16T16:53:09.529Z,9.63
2018-03-16T16:59:00.399Z,8.6
2018-03-16T17:04:51.235Z,8.75
2018-03-16T17:10:42.150Z,8.22
2018-03-16T17:16:32.986Z,8.94
2018-03-16T17:22:23.878Z,9.46
2018-03-16T17:28:14.739Z,8.56
2018-03-16T17:34:05.576Z,9.61
2018-03-16T17:39:56.450Z,8.61
2018-03-16T17:45:47.303Z,9.48
2018-03-16T17:51:38.187Z,8.84
2018-03-16T17:57:29.025Z,8.07
2018-03-16T18:03:19.939Z,8.25
2018-03-16T18:09:10.787Z,8.37
2018-03-16T18:15:01.647Z,7.52
2018-03-16T18:20:52.477Z,7.41
2018-03-16T18:26:43.398Z,7.88
2018-03-16T18:32:34.243Z,7.47
2018-03-16T18:38:25.089Z,7.3
2018-03-16T18:44:15.949Z,7.73
2018-03-16T18:50:06.820Z,7.8
2018-03-16T18:55:57.692Z,8.34
2018-03-16T19:01:48.586Z,8.94
2018-03-16T19:07:39.433Z,7.9
2018-03-16T19:13:30.362Z,8.37
2018-03-16T19:19:21.198Z,7.63
2018-03-16T19:25:12.035Z,8.04
2018-03-16T19:31:02.912Z,8.24
2018-03-16T19:36:53.810Z,7.92
2018-03-16T19:42:44.612Z,7.2
2018-03-16T19:48:35.614Z,6.05
2018-03-16T19:54:26.424Z,6.92
2018-03-16T20:00:17.184Z,7.14
2018-03-16T20:06:08.080Z,7.17
2018-03-16T20:11:58.905Z,7.09
2018-03-16T20:17:49.781Z,6.28
2018-03-16T20:23:40.707Z,6.9
2018-03-16T20:29:31.521Z,7.79
2018-03-16T20:35:22.377Z,6.54
2018-03-16T20:41:13.244Z,6.2
2018-03-16T20:47:04.075Z,5.48
2018-03-16T20:52:54.935Z,5.69
2018-03-16T20:58:45.837Z,5.81
2018-03-16T21:04:36.642Z,6.28
2018-03-16T21:10:27.537Z,7.87
2018-03-16T21:16:18.362Z,7.89
2018-03-16T21:22:09.251Z,7.33
2018-03-16T21:28:00.152Z,7.34
2018-03-16T21:33:51.034Z,8.04
2018-03-16T21:39:41.894Z,7.26
2018-03-16T21:45:32.729Z,8.03
2018-03-16T21:51:23.542Z,7.06
2018-03-16T21:57:14.424Z,7.56
2018-03-16T22:03:05.234Z,7.97
2018-03-16T22:08:56.089Z,7.83
2018-03-16T22:14:47.017Z,7.59
2018-03-16T22:20:37.828Z,8.21
2018-03-16T22:26:28.692Z,9.07
2018-03-16T22:32:19.505Z,9.04
2018-03-16T22:38:10.370Z,8.9
2018-03-16T22:44:01.282Z,9.76
2018-03-16T22:49:52.073Z,9.62
2018-03-16T22:55:42.954Z,8.96
2018-03-16T23:01:33.865Z,8.61
2018-03-16T23:07:24.710Z,9.56
2018-03-16T23:13:15.534Z,9.72
2018-03-16T23:19:06.385Z,9.63
2018-03-16T23:24:57.230Z,8.63
2018-03-16T23:30:48.080Z,8.85
2018-03-16T23:36:39.032Z,8
2018-03-16T23:42:29.813Z,9.23
2018-03-16T23:48:20.680Z,7.75
2018-03-16T23:54:11.505Z,8.61
